Time;durP1;ratioP1;P1;durP2;ratioP2;P2;SDS_P1;SDS_P2;PMS_P1;PMS_P2;Temp;Humidity;BMP_temperature;BMP_pressure;BME280_temperature;BME280_humidity;BME280_pressure;Samples;Min_cycle;Max_cycle;Signal;HPM_P1;HPM_P2
2022/06/19 00:02:21;;;;;;;8.10;4.78;;;24.70;53.30;;;;;;5016973;28;20213;-68
2022/06/19 00:04:51;;;;;;;10.88;4.50;;;24.70;53.30;;;;;;5016914;28;20280;-69
2022/06/19 00:07:18;;;;;;;8.32;4.20;;;24.70;53.20;;;;;;5015547;28;20680;-69
2022/06/19 00:09:46;;;;;;;7.03;4.60;;;24.70;53.30;;;;;;5015593;28;20201;-69
2022/06/19 00:12:13;;;;;;;8.23;4.53;;;24.70;53.20;;;;;;5015259;28;20199;-69
2022/06/19 00:14:40;;;;;;;6.53;3.92;;;24.70;53.20;;;;;;5015058;28;20617;-69
2022/06/19 00:17:09;;;;;;;8.32;4.03;;;24.60;53.20;;;;;;5015047;28;20204;-69
2022/06/19 00:19:36;;;;;;;8.27;3.28;;;24.60;53.20;;;;;;5015525;28;20196;-69
2022/06/19 00:22:05;;;;;;;7.50;4.00;;;24.60;53.20;;;;;;5015210;28;20217;-69
2022/06/19 00:24:33;;;;;;;7.72;3.90;;;24.60;53.20;;;;;;5015790;28;20259;-71
2022/06/19 00:26:59;;;;;;;8.27;4.15;;;24.50;53.10;;;;;;5015090;28;20307;-69
2022/06/19 00:29:28;;;;;;;9.85;4.55;;;24.50;53.10;;;;;;5015190;28;20203;-69
2022/06/19 00:31:55;;;;;;;5.72;3.85;;;24.50;53.10;;;;;;5015381;28;20288;-69
2022/06/19 00:34:22;;;;;;;7.78;3.92;;;24.50;53.10;;;;;;5015062;28;20647;-69
2022/06/19 00:36:50;;;;;;;6.90;3.88;;;24.50;53.10;;;;;;5015190;28;20197;-69
2022/06/19 00:39:18;;;;;;;6.55;3.65;;;24.50;53.20;;;;;;5015221;28;20201;-69
2022/06/19 00:41:45;;;;;;;8.38;3.55;;;24.50;53.10;;;;;;5015974;28;20224;-69
2022/06/19 00:44:13;;;;;;;9.35;3.70;;;24.50;53.10;;;;;;5014849;28;20271;-68
2022/06/19 00:46:49;;;;;;;7.13;3.80;;;24.50;53.10;;;;;;5013651;28;20677;-69
2022/06/19 00:49:18;;;;;;;6.93;3.92;;;24.40;53.10;;;;;;5014466;28;20324;-69
2022/06/19 00:51:45;;;;;;;7.13;3.45;;;24.40;53.10;;;;;;5014472;28;20631;-69
2022/06/19 00:54:14;;;;;;;8.50;3.70;;;24.40;53.00;;;;;;5014336;28;20595;-69
2022/06/19 00:56:42;;;;;;;7.25;3.38;;;24.40;53.10;;;;;;5015627;28;20681;-68
2022/06/19 00:59:10;;;;;;;9.85;3.88;;;24.40;53.10;;;;;;5014344;28;20243;-69
2022/06/19 01:01:36;;;;;;;5.82;3.95;;;24.40;53.10;;;;;;5015630;28;20204;-69
2022/06/19 01:04:06;;;;;;;6.07;3.78;;;24.40;53.00;;;;;;5015852;28;20235;-69
2022/06/19 01:06:33;;;;;;;6.47;3.72;;;24.30;52.90;;;;;;5014289;28;20197;-69
2022/06/19 01:09:00;;;;;;;6.00;3.45;;;24.30;52.90;;;;;;5014447;28;20205;-69
2022/06/19 01:11:30;;;;;;;6.30;3.80;;;24.30;53.00;;;;;;5016226;28;20204;-69
2022/06/19 01:13:58;;;;;;;7.10;3.67;;;24.30;53.00;;;;;;5014040;28;20299;-69
2022/06/19 01:16:25;;;;;;;6.03;3.67;;;24.30;52.90;;;;;;5014277;28;20243;-69
2022/06/19 01:18:52;;;;;;;7.85;3.83;;;24.30;52.90;;;;;;5015787;28;20193;-68
2022/06/19 01:21:24;;;;;;;7.63;3.47;;;24.30;53.10;;;;;;5014627;28;20589;-69
2022/06/19 01:23:54;;;;;;;9.60;4.00;;;24.30;53.10;;;;;;5014169;28;20294;-69
2022/06/19 01:26:23;;;;;;;8.05;3.70;;;24.20;53.00;;;;;;5014583;28;20208;-69
2022/06/19 01:28:56;;;;;;;8.07;3.90;;;24.20;53.00;;;;;;5016781;28;20654;-69
2022/06/19 01:31:25;;;;;;;7.75;4.10;;;24.20;53.00;;;;;;5015640;28;20173;-70
2022/06/19 01:33:53;;;;;;;8.40;4.55;;;24.20;53.00;;;;;;5015764;28;20216;-69
2022/06/19 01:36:21;;;;;;;7.82;3.72;;;24.20;52.90;;;;;;5014549;28;20207;-69
2022/06/19 01:38:51;;;;;;;6.10;3.67;;;24.20;53.00;;;;;;5015753;28;20197;-69
2022/06/19 01:41:20;;;;;;;7.65;3.83;;;24.20;52.90;;;;;;5015217;28;20584;-69
2022/06/19 01:43:49;;;;;;;9.35;3.95;;;24.20;52.90;;;;;;5014444;28;20221;-69
2022/06/19 01:46:16;;;;;;;6.55;3.53;;;24.20;53.00;;;;;;5013905;28;20204;-69
2022/06/19 01:48:43;;;;;;;8.63;4.07;;;24.20;52.90;;;;;;5014052;28;20201;-69
2022/06/19 01:51:10;;;;;;;7.47;3.40;;;24.20;52.90;;;;;;5014722;28;20259;-68
2022/06/19 01:53:39;;;;;;;7.85;4.00;;;24.20;52.90;;;;;;5014744;28;20264;-68
2022/06/19 01:56:06;;;;;;;8.60;3.80;;;24.20;52.80;;;;;;5013650;28;20721;-69
2022/06/19 01:58:34;;;;;;;7.80;3.88;;;24.10;52.80;;;;;;5013377;28;20193;-69
2022/06/19 02:01:04;;;;;;;7.88;3.60;;;24.10;52.80;;;;;;5014459;28;20201;-69
2022/06/19 02:03:33;;;;;;;7.28;3.83;;;24.10;52.80;;;;;;5013632;28;20220;-69
2022/06/19 02:06:00;;;;;;;6.32;3.83;;;24.10;52.80;;;;;;5014019;28;20201;-69
2022/06/19 02:08:27;;;;;;;6.40;3.35;;;24.10;52.80;;;;;;5014882;28;20692;-69
2022/06/19 02:10:54;;;;;;;5.75;3.83;;;24.10;52.80;;;;;;5013742;28;20200;-68
2022/06/19 02:13:21;;;;;;;6.50;3.22;;;24.10;52.80;;;;;;5013237;28;20225;-69
2022/06/19 02:15:49;;;;;;;9.95;3.70;;;24.10;52.70;;;;;;5013192;28;20220;-69
2022/06/19 02:18:20;;;;;;;5.47;3.42;;;24.10;52.80;;;;;;5013154;28;20220;-69
2022/06/19 02:20:47;;;;;;;6.03;3.25;;;24.10;52.90;;;;;;5014990;28;20603;-71
2022/06/19 02:23:14;;;;;;;6.68;3.70;;;24.10;52.90;;;;;;5014493;28;20220;-69
2022/06/19 02:25:41;;;;;;;7.07;3.42;;;24.00;52.90;;;;;;5013137;28;20223;-69
2022/06/19 02:28:09;;;;;;;5.15;3.33;;;24.00;52.90;;;;;;5012931;28;20200;-69
2022/06/19 02:30:36;;;;;;;7.38;3.58;;;24.00;52.90;;;;;;5012586;28;20582;-69
2022/06/19 02:33:03;;;;;;;7.35;3.35;;;24.00;52.90;;;;;;5013949;28;20188;-69
2022/06/19 02:35:31;;;;;;;9.23;3.45;;;24.00;52.90;;;;;;5012691;28;20642;-69
2022/06/19 02:37:58;;;;;;;7.25;3.78;;;24.00;52.90;;;;;;5013022;28;20287;-69
2022/06/19 02:40:31;;;;;;;10.00;4.00;;;24.00;52.90;;;;;;5013878;28;20189;-69
2022/06/19 02:42:58;;;;;;;6.13;3.83;;;24.00;53.00;;;;;;5012472;28;20612;-69
2022/06/19 02:45:26;;;;;;;6.75;3.72;;;24.00;53.00;;;;;;5012384;28;20224;-68
2022/06/19 02:47:54;;;;;;;5.75;3.20;;;24.00;53.00;;;;;;5012513;28;20207;-68
2022/06/19 02:50:22;;;;;;;6.07;3.58;;;24.00;53.00;;;;;;5012631;28;20255;-68
2022/06/19 02:52:50;;;;;;;5.22;3.10;;;24.00;53.10;;;;;;5013348;28;20560;-69
2022/06/19 02:55:18;;;;;;;6.60;3.10;;;24.00;53.00;;;;;;5012822;28;20226;-69
2022/06/19 02:57:48;;;;;;;8.27;3.22;;;23.90;52.90;;;;;;5012648;28;20207;-69
2022/06/19 03:00:19;;;;;;;6.93;3.17;;;23.90;52.90;;;;;;5012596;28;20283;-69
2022/06/19 03:02:46;;;;;;;5.72;3.20;;;23.90;52.90;;;;;;5013406;28;20719;-68
2022/06/19 03:05:16;;;;;;;6.13;3.45;;;23.90;52.90;;;;;;5012603;28;20247;-69
2022/06/19 03:07:43;;;;;;;7.68;3.15;;;23.90;52.90;;;;;;5012749;28;20677;-68
2022/06/19 03:10:12;;;;;;;7.70;3.47;;;23.90;52.90;;;;;;5016648;28;20196;-69
2022/06/19 03:12:38;;;;;;;5.40;3.00;;;23.80;52.90;;;;;;5020381;28;20231;-69
2022/06/19 03:15:06;;;;;;;6.03;3.45;;;23.80;53.00;;;;;;5021102;28;20664;-69
2022/06/19 03:17:33;;;;;;;4.70;3.10;;;23.80;52.90;;;;;;5022443;28;20200;-69
2022/06/19 03:20:00;;;;;;;8.52;3.17;;;23.80;53.00;;;;;;5019255;28;20279;-68
2022/06/19 03:22:27;;;;;;;6.43;3.28;;;23.80;52.90;;;;;;5019171;28;20255;-69
2022/06/19 03:24:54;;;;;;;6.55;3.00;;;23.80;53.00;;;;;;5020097;28;20216;-69
2022/06/19 03:27:22;;;;;;;8.38;3.45;;;23.80;52.90;;;;;;5020114;28;20195;-69
2022/06/19 03:29:49;;;;;;;6.03;2.95;;;23.80;52.80;;;;;;5018908;28;20196;-68
2022/06/19 03:32:16;;;;;;;6.28;3.22;;;23.80;52.80;;;;;;5018918;28;20208;-69
2022/06/19 03:34:43;;;;;;;7.18;3.33;;;23.80;52.70;;;;;;5019811;28;20213;-69
2022/06/19 03:37:11;;;;;;;7.05;3.00;;;23.80;52.70;;;;;;5018441;28;20208;-69
2022/06/19 03:39:38;;;;;;;6.43;3.08;;;23.80;52.60;;;;;;5018584;28;20210;-69
2022/06/19 03:42:05;;;;;;;8.25;3.30;;;23.80;52.50;;;;;;5018500;28;20202;-69
2022/06/19 03:44:34;;;;;;;6.35;3.30;;;23.90;52.60;;;;;;5020180;28;20213;-68
2022/06/19 03:47:02;;;;;;;5.53;3.22;;;23.90;52.40;;;;;;5018749;28;20224;-69
2022/06/19 03:49:29;;;;;;;10.25;3.05;;;23.90;53.00;;;;;;5019797;28;20219;-69
2022/06/19 03:51:56;;;;;;;6.80;3.15;;;23.90;52.30;;;;;;5018754;28;20208;-69
2022/06/19 03:54:23;;;;;;;7.35;3.05;;;23.90;52.20;;;;;;5019151;28;20216;-69
2022/06/19 03:56:50;;;;;;;5.65;2.90;;;24.00;52.20;;;;;;5018436;28;20203;-69
2022/06/19 03:59:17;;;;;;;6.57;3.00;;;24.00;52.20;;;;;;5018434;28;20246;-69
2022/06/19 04:01:45;;;;;;;6.95;3.20;;;24.00;52.10;;;;;;5018548;28;20192;-69
2022/06/19 04:04:13;;;;;;;7.28;2.92;;;24.00;52.20;;;;;;5019339;28;20208;-67
2022/06/19 04:06:40;;;;;;;5.75;2.92;;;24.00;52.20;;;;;;5019646;28;20260;-68
2022/06/19 04:09:08;;;;;;;7.43;3.53;;;24.00;52.20;;;;;;5019809;28;20211;-69
2022/06/19 04:11:36;;;;;;;5.82;3.13;;;24.10;52.20;;;;;;5018662;28;20208;-69
2022/06/19 04:14:03;;;;;;;5.90;2.95;;;24.10;52.30;;;;;;5018643;28;20219;-69
2022/06/19 04:16:32;;;;;;;6.07;2.88;;;24.10;52.30;;;;;;5018624;28;20688;-68
2022/06/19 04:19:02;;;;;;;7.05;3.17;;;24.10;52.20;;;;;;5018493;28;20636;-68
2022/06/19 04:21:30;;;;;;;5.57;3.03;;;24.10;52.20;;;;;;5015360;28;20232;-69
2022/06/19 04:23:59;;;;;;;8.07;3.35;;;24.10;52.20;;;;;;5016318;28;20220;-69
2022/06/19 04:26:26;;;;;;;5.00;2.80;;;24.10;52.20;;;;;;5015315;28;20219;-69
2022/06/19 04:28:53;;;;;;;8.98;3.20;;;24.20;52.40;;;;;;5014835;28;20197;-69
2022/06/19 04:31:20;;;;;;;7.63;3.22;;;24.20;52.40;;;;;;5015079;28;20189;-69
2022/06/19 04:33:47;;;;;;;7.35;3.15;;;24.20;52.40;;;;;;5014991;28;20575;-68
2022/06/19 04:36:17;;;;;;;6.63;3.22;;;24.20;52.40;;;;;;5016228;28;20687;-69
2022/06/19 04:38:45;;;;;;;7.63;3.72;;;24.30;52.50;;;;;;5014870;28;20201;-69
2022/06/19 04:41:13;;;;;;;7.55;3.22;;;24.20;52.50;;;;;;5016105;28;20243;-69
2022/06/19 04:43:40;;;;;;;7.00;3.28;;;24.30;52.50;;;;;;5014845;28;20225;-69
2022/06/19 04:46:07;;;;;;;4.90;2.88;;;24.40;52.50;;;;;;5015895;28;20600;-68
2022/06/19 04:48:35;;;;;;;7.00;3.03;;;24.50;52.40;;;;;;5014811;28;20709;-69
2022/06/19 04:51:02;;;;;;;5.65;2.65;;;24.60;52.20;;;;;;5014624;28;20291;-68
2022/06/19 04:53:32;;;;;;;5.53;2.88;;;24.70;51.90;;;;;;5015708;28;20658;-71
2022/06/19 04:56:00;;;;;;;5.22;3.13;;;24.80;51.70;;;;;;5014379;28;20189;-69
2022/06/19 04:58:26;;;;;;;6.03;3.10;;;25.00;51.50;;;;;;5015569;28;20197;-69
2022/06/19 05:00:54;;;;;;;6.40;3.20;;;25.10;51.30;;;;;;5014295;28;20205;-69
2022/06/19 05:03:22;;;;;;;6.88;3.03;;;25.20;51.10;;;;;;5014575;28;20225;-68
2022/06/19 05:05:49;;;;;;;5.53;3.10;;;25.30;50.90;;;;;;5014017;28;20216;-69
2022/06/19 05:08:16;;;;;;;7.32;3.30;;;25.40;50.70;;;;;;5015491;28;20189;-69
2022/06/19 05:10:44;;;;;;;5.55;2.88;;;25.50;50.50;;;;;;5015520;28;20197;-69
2022/06/19 05:13:15;;;;;;;8.57;3.15;;;25.60;50.30;;;;;;5014380;28;20660;-69
2022/06/19 05:15:42;;;;;;;6.63;3.08;;;25.70;50.20;;;;;;5014079;28;20221;-69
2022/06/19 05:18:09;;;;;;;8.63;3.58;;;25.90;50.20;;;;;;5014126;28;20225;-68
2022/06/19 05:20:37;;;;;;;6.00;3.08;;;25.90;50.00;;;;;;5014174;28;20204;-69
2022/06/19 05:23:04;;;;;;;6.80;3.08;;;26.10;49.90;;;;;;5014262;28;20641;-68
2022/06/19 05:25:31;;;;;;;6.95;2.72;;;26.10;49.70;;;;;;5014504;28;20221;-67
2022/06/19 05:28:00;;;;;;;7.53;3.30;;;26.20;49.50;;;;;;5015732;28;20247;-69
2022/06/19 05:30:27;;;;;;;9.82;3.10;;;26.30;49.30;;;;;;5015843;28;20272;-69
2022/06/19 05:32:55;;;;;;;6.30;3.00;;;26.40;49.00;;;;;;5013858;28;20638;-69
2022/06/19 05:35:21;;;;;;;5.80;3.33;;;26.50;48.70;;;;;;5014422;28;20217;-68
2022/06/19 05:37:48;;;;;;;6.93;3.20;;;26.60;48.40;;;;;;5013879;28;20578;-69
2022/06/19 05:40:15;;;;;;;5.90;3.10;;;26.70;48.10;;;;;;5015391;28;20189;-68
2022/06/19 05:42:43;;;;;;;10.13;3.40;;;26.70;47.80;;;;;;5013762;28;20201;-69
2022/06/19 05:45:12;;;;;;;7.03;2.97;;;26.80;47.70;;;;;;5013672;28;20216;-69
2022/06/19 05:47:39;;;;;;;6.85;3.28;;;26.90;47.50;;;;;;5013825;28;20291;-69
2022/06/19 05:50:07;;;;;;;6.22;3.33;;;27.00;47.30;;;;;;5013565;28;20291;-69
2022/06/19 05:52:34;;;;;;;8.68;3.50;;;27.10;47.10;;;;;;5014973;28;20653;-69
2022/06/19 05:55:01;;;;;;;5.50;3.38;;;27.20;46.90;;;;;;5013615;28;20236;-69
2022/06/19 05:57:28;;;;;;;6.45;3.20;;;27.20;46.60;;;;;;5013736;28;20220;-69
2022/06/19 05:59:55;;;;;;;6.68;3.17;;;27.30;46.60;;;;;;5015522;28;20653;-69
2022/06/19 06:02:24;;;;;;;8.63;3.30;;;27.30;46.40;;;;;;5013685;28;20207;-69
2022/06/19 06:04:51;;;;;;;6.57;3.67;;;27.40;46.20;;;;;;5013734;28;20228;-69
2022/06/19 06:07:20;;;;;;;5.82;3.05;;;27.50;46.10;;;;;;5031028;28;20205;-67
2022/06/19 06:09:46;;;;;;;7.47;3.05;;;27.50;45.80;;;;;;5015728;28;20196;-69
2022/06/19 06:12:13;;;;;;;6.13;3.05;;;27.60;45.70;;;;;;5015409;28;20192;-69
2022/06/19 06:14:41;;;;;;;6.28;3.00;;;27.60;45.50;;;;;;5014805;28;20211;-69
2022/06/19 06:17:07;;;;;;;8.07;3.10;;;27.70;45.40;;;;;;5013403;28;20196;-69
2022/06/19 06:19:36;;;;;;;5.43;2.85;;;27.70;45.40;;;;;;5013446;28;20202;-69
2022/06/19 06:22:03;;;;;;;4.15;2.75;;;27.80;45.30;;;;;;5012963;28;20228;-69
2022/06/19 06:24:30;;;;;;;9.45;3.20;;;27.80;45.10;;;;;;5014442;28;20216;-69
2022/06/19 06:26:58;;;;;;;7.65;3.20;;;27.90;45.00;;;;;;5013260;28;20203;-69
2022/06/19 06:29:25;;;;;;;7.20;2.92;;;28.00;44.80;;;;;;5014397;28;20244;-69
2022/06/19 06:31:52;;;;;;;9.70;3.00;;;28.00;44.70;;;;;;5014287;28;20196;-69
2022/06/19 06:34:19;;;;;;;5.70;3.08;;;28.00;44.60;;;;;;5012730;28;20208;-69
2022/06/19 06:36:48;;;;;;;6.32;3.28;;;28.10;44.60;;;;;;5012822;28;20200;-69
2022/06/19 06:39:15;;;;;;;8.20;3.50;;;28.10;45.10;;;;;;5012594;28;20207;-70
2022/06/19 06:41:42;;;;;;;7.10;3.15;;;28.20;44.40;;;;;;5013839;28;20188;-69
2022/06/19 06:44:12;;;;;;;6.63;3.40;;;28.20;44.90;;;;;;5011870;28;20326;-68
2022/06/19 06:46:39;;;;;;;7.95;3.00;;;28.20;44.20;;;;;;5014392;28;20188;-69
2022/06/19 06:49:07;;;;;;;6.35;3.08;;;28.30;44.10;;;;;;5012332;28;20214;-69
2022/06/19 06:51:34;;;;;;;8.90;3.30;;;28.30;44.00;;;;;;5012628;28;20576;-69
2022/06/19 06:54:02;;;;;;;5.63;3.00;;;28.40;43.90;;;;;;5012467;28;20208;-67
2022/06/19 06:56:31;;;;;;;8.90;3.20;;;28.40;43.90;;;;;;5014309;28;20273;-69
2022/06/19 06:58:58;;;;;;;9.45;3.58;;;28.40;43.80;;;;;;5012597;28;20594;-68
2022/06/19 07:01:25;;;;;;;6.03;3.45;;;28.50;43.80;;;;;;5014091;28;20256;-69
2022/06/19 07:03:54;;;;;;;6.30;3.17;;;28.50;43.20;;;;;;5012231;28;20232;-67
2022/06/19 07:06:22;;;;;;;5.60;2.88;;;28.50;43.70;;;;;;5013964;28;20176;-68
2022/06/19 07:08:49;;;;;;;8.85;3.35;;;28.50;43.70;;;;;;5012582;28;20680;-69
2022/06/19 07:11:18;;;;;;;9.30;3.17;;;28.40;43.70;;;;;;5012687;28;20196;-68
2022/06/19 07:13:46;;;;;;;8.85;3.13;;;28.30;44.00;;;;;;5012654;28;20196;-69
2022/06/19 07:16:13;;;;;;;5.95;3.15;;;28.20;44.20;;;;;;5012304;28;20657;-69
2022/06/19 07:18:39;;;;;;;7.75;3.22;;;28.10;44.60;;;;;;5012297;28;20210;-69
2022/06/19 07:21:06;;;;;;;5.05;3.28;;;28.00;44.90;;;;;;5013281;28;20188;-69
2022/06/19 07:23:33;;;;;;;7.25;3.10;;;27.80;45.20;;;;;;5012150;28;20303;-68
2022/06/19 07:26:00;;;;;;;6.28;3.15;;;27.70;45.40;;;;;;5013942;28;20188;-69
2022/06/19 07:28:29;;;;;;;7.57;3.33;;;27.70;45.60;;;;;;5013236;28;20219;-68
2022/06/19 07:30:56;;;;;;;7.43;3.38;;;27.70;45.60;;;;;;5012425;28;20203;-68
2022/06/19 07:33:23;;;;;;;7.53;3.30;;;27.80;45.40;;;;;;5013080;28;20559;-68
2022/06/19 07:35:50;;;;;;;6.95;2.92;;;27.90;45.20;;;;;;5011958;28;20613;-69
2022/06/19 07:38:17;;;;;;;7.78;3.05;;;27.90;45.10;;;;;;5012021;28;20219;-68
2022/06/19 07:40:44;;;;;;;7.22;2.95;;;27.90;45.10;;;;;;5013212;28;20220;-69
2022/06/19 07:43:11;;;;;;;5.88;3.28;;;28.00;45.00;;;;;;5011795;28;20196;-68
2022/06/19 07:45:40;;;;;;;5.32;2.90;;;28.10;44.90;;;;;;5012016;28;20350;-69
2022/06/19 07:50:54;;;;;;;7.65;3.40;;;28.20;44.50;;;;;;5013428;28;20634;-68
2022/06/19 07:53:20;;;;;;;6.45;3.38;;;28.30;44.30;;;;;;5013459;28;20541;-69
2022/06/19 07:55:48;;;;;;;5.20;2.95;;;28.40;44.20;;;;;;5013339;28;20278;-67
2022/06/19 07:58:15;;;;;;;6.22;3.30;;;28.40;44.10;;;;;;5015755;28;20196;-69
2022/06/19 08:00:43;;;;;;;6.28;3.20;;;28.50;44.00;;;;;;5015845;28;20287;-69
2022/06/19 08:03:10;;;;;;;4.25;3.13;;;28.50;44.00;;;;;;5017078;28;20275;-69
2022/06/19 08:05:38;;;;;;;7.57;3.08;;;28.60;43.90;;;;;;5019895;28;20246;-69
2022/06/19 08:08:09;;;;;;;5.97;3.47;;;28.60;44.50;;;;;;5016892;28;20649;-68
2022/06/19 08:10:38;;;;;;;5.07;3.00;;;28.60;43.90;;;;;;5017419;28;20224;-70
2022/06/19 08:13:05;;;;;;;6.93;3.17;;;28.60;44.00;;;;;;5016020;28;20215;-70
2022/06/19 08:15:33;;;;;;;8.60;3.20;;;28.70;43.80;;;;;;5016363;28;20238;-70
2022/06/19 08:18:01;;;;;;;9.10;3.45;;;28.80;43.70;;;;;;5031942;28;20200;-68
2022/06/19 08:20:28;;;;;;;9.32;3.25;;;28.80;43.70;;;;;;5015394;28;20220;-68
2022/06/19 08:22:55;;;;;;;8.95;3.33;;;28.90;44.30;;;;;;5015283;28;20269;-69
2022/06/19 08:25:23;;;;;;;5.78;3.20;;;28.90;43.90;;;;;;5014987;28;20234;-69
2022/06/19 08:27:50;;;;;;;4.60;3.08;;;28.90;44.20;;;;;;5015725;28;20199;-70
2022/06/19 08:30:18;;;;;;;7.93;3.50;;;28.90;44.00;;;;;;5015407;28;20247;-70
2022/06/19 08:32:45;;;;;;;8.25;3.50;;;28.90;45.10;;;;;;5016057;28;20193;-72
2022/06/19 08:35:13;;;;;;;10.23;4.20;;;28.80;46.00;;;;;;5015222;28;20325;-70
2022/06/19 08:37:41;;;;;;;9.52;3.85;;;28.80;45.60;;;;;;5017140;28;20228;-71
2022/06/19 08:40:11;;;;;;;10.77;3.72;;;28.90;45.70;;;;;;5015233;28;20199;-71
2022/06/19 08:42:44;;;;;;;9.90;4.18;;;29.00;45.40;;;;;;5015257;28;20189;-70
2022/06/19 08:45:29;;;;;;;10.85;3.80;;;29.00;45.20;;;;;;5015103;28;20227;-70
2022/06/19 08:48:30;;;;;;;10.10;4.10;;;29.20;45.80;;;;;;5015619;28;20192;-71
2022/06/19 08:51:01;;;;;;;9.43;4.43;;;29.30;45.80;;;;;;5014822;28;20286;-71
2022/06/19 08:53:44;;;;;;;71.38;23.20;;;29.30;46.50;;;;;;5014485;28;20200;-71
2022/06/19 08:56:15;;;;;;;54.67;18.50;;;29.40;46.40;;;;;;5014569;28;20197;-70
2022/06/19 08:58:46;;;;;;;89.95;34.17;;;29.50;46.30;;;;;;5015812;28;20173;-71
2022/06/19 09:01:18;;;;;;;59.45;21.10;;;29.60;47.50;;;;;;5014715;28;20203;-71
2022/06/19 09:06:38;;;;;;;38.30;12.13;;;29.80;47.00;;;;;;5014648;28;20624;-71
2022/06/19 09:09:24;;;;;;;26.83;10.82;;;29.80;46.20;;;;;;5013910;28;20294;-70
2022/06/19 09:12:01;;;;;;;18.92;8.88;;;29.90;46.40;;;;;;5014331;28;20569;-70
2022/06/19 09:14:35;;;;;;;19.02;9.15;;;29.90;46.70;;;;;;5015707;28;20692;-70
2022/06/19 09:17:11;;;;;;;20.60;8.98;;;29.90;46.30;;;;;;5014146;28;20250;-69
2022/06/19 09:19:47;;;;;;;19.48;9.18;;;30.00;45.20;;;;;;5015726;28;20180;-71
2022/06/19 09:22:39;;;;;;;15.80;8.60;;;30.00;43.90;;;;;;5014040;28;20226;-71
2022/06/19 09:25:13;;;;;;;13.18;8.23;;;30.10;43.70;;;;;;5013826;28;20262;-70
2022/06/19 09:27:42;;;;;;;14.80;8.48;;;30.10;43.00;;;;;;5014252;28;20255;-71
2022/06/19 09:30:11;;;;;;;12.25;8.15;;;30.10;42.50;;;;;;5014409;28;20296;-70
2022/06/19 09:32:39;;;;;;;14.02;7.68;;;30.10;42.40;;;;;;5015478;28;20193;-71
2022/06/19 09:35:09;;;;;;;12.95;7.80;;;30.10;42.20;;;;;;5013929;28;20216;-71
2022/06/19 09:37:39;;;;;;;14.40;8.40;;;30.10;41.60;;;;;;5013955;28;20341;-70
2022/06/19 09:40:09;;;;;;;12.35;7.57;;;30.10;40.90;;;;;;5015333;28;20188;-70
2022/06/19 09:42:38;;;;;;;11.40;7.43;;;30.10;39.80;;;;;;5015292;28;20191;-72
2022/06/19 09:45:07;;;;;;;13.48;7.82;;;30.00;39.60;;;;;;5014783;28;20220;-70
2022/06/19 09:47:37;;;;;;;11.23;7.25;;;30.10;39.40;;;;;;5015478;28;20254;-70
2022/06/19 09:50:06;;;;;;;12.38;7.85;;;30.00;40.00;;;;;;5015191;28;20276;-70
2022/06/19 09:52:35;;;;;;;17.80;7.93;;;30.00;39.30;;;;;;5014562;28;20644;-70
2022/06/19 09:55:06;;;;;;;13.98;7.63;;;30.00;38.90;;;;;;5014694;28;20211;-70
2022/06/19 09:57:36;;;;;;;12.15;7.50;;;30.00;38.80;;;;;;5016250;28;20687;-70
2022/06/19 10:00:05;;;;;;;11.02;7.03;;;30.00;38.30;;;;;;5013933;28;20196;-69
2022/06/19 10:02:44;;;;;;;12.88;6.93;;;30.00;38.30;;;;;;5015161;28;20649;-70
2022/06/19 10:05:13;;;;;;;15.07;7.00;;;30.00;38.20;;;;;;5014616;28;20310;-70
2022/06/19 10:07:42;;;;;;;16.15;7.18;;;29.90;38.30;;;;;;5013426;28;20218;-70
2022/06/19 10:10:17;;;;;;;12.35;7.13;;;29.90;38.40;;;;;;5013372;28;20623;-70
2022/06/19 10:12:45;;;;;;;10.50;6.70;;;29.80;38.70;;;;;;5013432;28;20627;-70
2022/06/19 10:15:14;;;;;;;8.80;6.57;;;29.80;38.90;;;;;;5013294;28;20276;-70
2022/06/19 10:17:48;;;;;;;8.43;6.22;;;29.80;39.10;;;;;;5014799;28;20616;-71
2022/06/19 10:20:16;;;;;;;11.45;7.28;;;29.70;39.00;;;;;;5014108;28;20199;-70
2022/06/19 10:22:59;;;;;;;13.00;7.15;;;29.70;39.50;;;;;;5014792;28;20195;-70
2022/06/19 10:25:44;;;;;;;11.63;7.47;;;29.70;39.30;;;;;;5013101;28;20692;-70
2022/06/19 10:28:40;;;;;;;11.60;7.35;;;29.70;39.20;;;;;;5013221;28;20203;-70
2022/06/19 10:31:13;;;;;;;13.60;7.95;;;29.70;39.20;;;;;;5013406;28;20744;-71
2022/06/19 10:33:47;;;;;;;14.02;7.70;;;29.60;39.00;;;;;;5012981;28;20214;-70
2022/06/19 10:36:17;;;;;;;14.18;7.40;;;29.60;38.60;;;;;;5013455;28;20214;-72
2022/06/19 10:39:01;;;;;;;13.50;7.18;;;29.70;38.40;;;;;;5012985;28;20616;-71
2022/06/19 10:44:23;;;;;;;12.20;7.50;;;29.70;37.90;;;;;;5012803;28;20287;-68
2022/06/19 10:46:54;;;;;;;11.32;7.15;;;29.70;37.50;;;;;;5014680;28;20637;-69
2022/06/19 10:49:24;;;;;;;13.55;7.63;;;29.70;37.60;;;;;;5014281;28;20198;-70
2022/06/19 10:51:55;;;;;;;9.38;6.88;;;29.60;37.50;;;;;;5013261;28;20207;-70
2022/06/19 10:54:52;;;;;;;14.27;7.15;;;29.60;37.80;;;;;;5013614;28;20568;-69
2022/06/19 10:57:24;;;;;;;12.68;7.55;;;29.50;38.20;;;;;;5000867;28;20200;-70
2022/06/19 10:59:51;;;;;;;11.05;6.85;;;29.40;38.00;;;;;;5012502;28;20291;-69
2022/06/19 11:05:14;;;;;;;13.45;7.70;;;29.40;38.70;;;;;;5012276;28;20759;-69
2022/06/19 11:07:41;;;;;;;10.80;6.53;;;29.40;38.60;;;;;;5012863;28;20192;-69
2022/06/19 11:10:16;;;;;;;12.38;6.85;;;29.40;39.00;;;;;;5013768;28;20188;-69
2022/06/19 11:12:46;;;;;;;11.25;6.45;;;29.50;38.90;;;;;;5012558;28;20199;-69
2022/06/19 11:15:19;;;;;;;13.18;6.88;;;29.60;38.80;;;;;;5014254;28;20208;-69
2022/06/19 11:17:46;;;;;;;11.18;6.45;;;29.60;38.50;;;;;;5012439;28;20223;-70
2022/06/19 11:20:24;;;;;;;11.10;6.13;;;29.70;38.40;;;;;;5012350;28;20196;-70
2022/06/19 11:22:52;;;;;;;8.50;5.90;;;29.70;38.00;;;;;;5012141;28;20204;-69
2022/06/19 11:25:30;;;;;;;10.60;6.47;;;29.70;37.70;;;;;;5011939;28;20223;-69
2022/06/19 11:28:01;;;;;;;10.73;6.13;;;29.80;37.30;;;;;;5012244;28;20210;-70
2022/06/19 11:30:31;;;;;;;9.20;6.13;;;29.70;37.40;;;;;;5013256;28;20203;-69
2022/06/19 11:32:58;;;;;;;11.48;6.47;;;29.80;37.50;;;;;;5016613;28;20207;-70
2022/06/19 11:35:25;;;;;;;7.88;5.47;;;29.80;37.50;;;;;;5016318;28;20565;-70
2022/06/19 11:37:54;;;;;;;12.80;6.40;;;29.80;37.80;;;;;;5016658;28;20200;-70
2022/06/19 11:40:29;;;;;;;11.20;6.28;;;29.70;37.80;;;;;;5016832;28;20640;-70
2022/06/19 11:42:59;;;;;;;13.55;5.90;;;29.80;37.90;;;;;;5017314;28;20607;-70
2022/06/19 11:45:28;;;;;;;9.40;5.75;;;29.80;38.10;;;;;;5032920;28;20600;-70
2022/06/19 11:48:07;;;;;;;11.48;6.60;;;29.70;38.20;;;;;;5016872;28;20200;-70
2022/06/19 11:50:42;;;;;;;10.60;5.80;;;29.70;38.20;;;;;;5017986;28;20184;-70
2022/06/19 11:53:14;;;;;;;10.55;6.10;;;29.60;38.50;;;;;;5016637;28;20192;-71
2022/06/19 11:55:41;;;;;;;7.78;6.15;;;29.60;38.60;;;;;;5027532;28;20727;-70
2022/06/19 11:58:28;;;;;;;8.77;5.72;;;29.60;38.60;;;;;;5026473;28;20207;-70
2022/06/19 12:00:58;;;;;;;12.27;6.13;;;29.50;38.70;;;;;;5016387;28;20196;-69
2022/06/19 12:03:27;;;;;;;10.35;5.70;;;29.60;39.10;;;;;;5015885;28;20204;-70
2022/06/19 12:05:55;;;;;;;10.10;5.93;;;29.50;39.10;;;;;;5017015;28;20272;-70
2022/06/19 12:08:23;;;;;;;12.48;5.90;;;29.50;39.50;;;;;;5015613;28;20580;-71
2022/06/19 12:10:52;;;;;;;11.65;5.97;;;29.40;40.40;;;;;;5015741;28;20252;-70
2022/06/19 12:13:26;;;;;;;10.40;6.20;;;29.40;39.80;;;;;;5015678;28;20246;-71
2022/06/19 12:15:56;;;;;;;9.70;5.80;;;29.40;39.40;;;;;;5017393;28;20579;-71
2022/06/19 12:18:23;;;;;;;9.85;6.18;;;29.40;39.50;;;;;;5016130;28;20651;-71
2022/06/19 12:21:04;;;;;;;13.65;5.80;;;29.40;39.60;;;;;;5015919;28;20200;-71
2022/06/19 12:23:37;;;;;;;10.27;6.22;;;29.40;39.70;;;;;;5017167;28;20184;-71
2022/06/19 12:26:05;;;;;;;8.30;5.53;;;29.30;40.00;;;;;;5015978;28;20220;-71
2022/06/19 12:28:36;;;;;;;9.30;5.50;;;29.20;40.10;;;;;;5017039;28;20224;-71
2022/06/19 12:31:05;;;;;;;8.73;5.88;;;29.20;40.10;;;;;;5019157;28;20176;-71
2022/06/19 12:33:34;;;;;;;10.68;6.25;;;29.20;40.20;;;;;;5017126;28;20211;-71
2022/06/19 12:36:01;;;;;;;10.40;5.55;;;29.20;40.30;;;;;;5020944;28;20242;-71
2022/06/19 12:38:31;;;;;;;10.68;6.07;;;29.10;40.30;;;;;;5017306;28;20196;-69
2022/06/19 12:41:19;;;;;;;10.70;6.28;;;29.20;40.50;;;;;;5016653;28;20200;-69
2022/06/19 12:44:00;;;;;;;10.23;5.95;;;29.10;40.60;;;;;;5014075;28;20206;-70
2022/06/19 12:46:32;;;;;;;9.60;5.72;;;29.10;40.40;;;;;;5017789;28;20208;-69
2022/06/19 12:49:05;;;;;;;7.57;5.90;;;29.00;40.60;;;;;;5017250;28;20184;-69
2022/06/19 12:51:34;;;;;;;10.45;6.18;;;29.00;40.60;;;;;;5016829;28;20186;-70
2022/06/19 12:54:25;;;;;;;7.93;5.85;;;29.00;40.80;;;;;;5014723;28;20224;-70
2022/06/19 12:57:04;;;;;;;9.40;5.68;;;29.00;40.80;;;;;;5016488;28;20196;-69
2022/06/19 12:59:52;;;;;;;8.15;5.93;;;29.00;40.90;;;;;;5016699;28;20187;-69
2022/06/19 13:02:24;;;;;;;8.00;5.78;;;28.90;41.00;;;;;;5016647;28;20193;-69
2022/06/19 13:04:58;;;;;;;10.30;6.07;;;28.90;41.10;;;;;;5032178;28;20243;-70
2022/06/19 13:07:34;;;;;;;7.80;5.90;;;28.80;41.50;;;;;;5016630;28;20545;-69